createdAt,value
2023-05-17T00:01:09.723Z,3.33
2023-05-17T00:03:37.440Z,2.53
2023-05-17T00:06:05.489Z,2.55
2023-05-17T00:08:33.310Z,2.20
2023-05-17T00:11:01.092Z,1.92
2023-05-17T00:13:30.269Z,1.83
2023-05-17T00:15:57.943Z,1.80
2023-05-17T00:18:26.328Z,1.45
2023-05-17T00:20:54.096Z,2.17
2023-05-17T00:23:21.806Z,2.38
2023-05-17T00:25:49.500Z,1.50
2023-05-17T00:28:17.185Z,2.00
2023-05-17T00:30:46.225Z,2.15
2023-05-17T00:33:13.907Z,2.03
2023-05-17T00:35:41.627Z,2.63
2023-05-17T00:38:09.635Z,1.48
2023-05-17T00:40:37.410Z,1.80
2023-05-17T00:43:05.267Z,2.47
2023-05-17T00:45:32.974Z,1.80
2023-05-17T00:48:02.277Z,1.45
2023-05-17T00:50:30.354Z,1.67
2023-05-17T00:52:58.384Z,1.95
2023-05-17T00:55:26.184Z,2.05
2023-05-17T00:57:54.548Z,2.40
2023-05-17T01:00:22.221Z,2.35
2023-05-17T01:02:50.550Z,2.10
2023-05-17T01:05:19.628Z,2.17
2023-05-17T01:07:47.433Z,2.92
2023-05-17T01:10:15.209Z,2.22
2023-05-17T01:12:56.508Z,1.98
2023-05-17T01:15:28.724Z,2.28
2023-05-17T01:18:11.421Z,2.25
2023-05-17T01:20:44.438Z,2.17
2023-05-17T01:23:28.550Z,1.95
2023-05-17T01:26:14.919Z,2.15
2023-05-17T01:28:47.252Z,2.30
2023-05-17T01:31:15.734Z,2.70
2023-05-17T01:33:43.926Z,3.13
2023-05-17T01:36:11.781Z,2.53
2023-05-17T01:38:39.501Z,1.90
2023-05-17T01:41:16.537Z,3.15
2023-05-17T01:43:50.733Z,2.25
2023-05-17T01:46:27.402Z,2.33
2023-05-17T01:49:04.070Z,2.88
2023-05-17T01:51:35.370Z,2.40
2023-05-17T01:54:09.567Z,2.78
2023-05-17T01:56:41.505Z,2.30
2023-05-17T01:59:12.665Z,2.45
2023-05-17T02:01:41.922Z,2.78
2023-05-17T02:04:11.236Z,3.03
2023-05-17T02:06:39.026Z,2.75
2023-05-17T02:09:06.934Z,2.35
2023-05-17T02:11:34.813Z,2.03
2023-05-17T02:14:05.227Z,2.90
2023-05-17T02:16:34.394Z,2.10
2023-05-17T02:19:02.050Z,2.47
2023-05-17T02:21:29.736Z,2.53
2023-05-17T02:23:57.516Z,2.13
2023-05-17T02:26:25.325Z,2.45
2023-05-17T02:28:53.118Z,2.67
2023-05-17T02:31:20.955Z,2.40
2023-05-17T02:33:50.206Z,2.17
2023-05-17T02:36:17.972Z,2.78
2023-05-17T02:38:45.743Z,2.28
2023-05-17T02:41:13.754Z,2.67
2023-05-17T02:43:41.602Z,2.95
2023-05-17T02:46:10.533Z,2.03
2023-05-17T02:48:38.254Z,1.92
2023-05-17T02:51:07.487Z,2.65
2023-05-17T02:53:35.188Z,3.17
2023-05-17T02:56:04.048Z,2.53
2023-05-17T02:58:31.749Z,2.10
2023-05-17T03:00:59.403Z,3.33
2023-05-17T03:03:27.267Z,2.95
2023-05-17T03:05:55.212Z,3.47
2023-05-17T03:08:24.288Z,2.90
2023-05-17T03:10:52.337Z,2.55
2023-05-17T03:13:20.148Z,2.92
2023-05-17T03:15:47.870Z,2.92
2023-05-17T03:18:15.822Z,2.75
2023-05-17T03:20:43.886Z,3.47
2023-05-17T03:23:11.749Z,3.80
2023-05-17T03:25:40.919Z,2.95
2023-05-17T03:28:08.596Z,2.80
2023-05-17T03:30:36.478Z,2.90
2023-05-17T03:33:04.583Z,2.60
2023-05-17T03:35:32.517Z,3.55
2023-05-17T03:38:00.430Z,2.95
2023-05-17T03:40:28.189Z,2.58
2023-05-17T03:42:57.653Z,2.78
2023-05-17T03:45:25.712Z,3.03
2023-05-17T03:47:53.662Z,2.70
2023-05-17T03:50:21.528Z,3.83
2023-05-17T03:52:49.509Z,3.10
2023-05-17T03:55:17.162Z,3.25
2023-05-17T03:57:44.854Z,2.53
2023-05-17T04:00:21.119Z,2.50
2023-05-17T04:02:49.045Z,2.63
2023-05-17T04:05:16.905Z,3.00
2023-05-17T04:07:45.644Z,2.58
2023-05-17T04:10:13.991Z,3.67
2023-05-17T04:12:41.858Z,2.75
2023-05-17T04:15:10.712Z,3.22
2023-05-17T04:17:39.707Z,3.08
2023-05-17T04:20:08.307Z,2.33
2023-05-17T04:22:35.980Z,2.53
2023-05-17T04:25:03.787Z,3.15
2023-05-17T04:27:31.897Z,2.25
2023-05-17T04:29:59.571Z,3.25
2023-05-17T04:32:27.965Z,3.40
2023-05-17T04:34:57.352Z,2.92
2023-05-17T04:37:25.048Z,2.50
2023-05-17T04:39:53.457Z,2.22
2023-05-17T04:42:21.408Z,2.42
2023-05-17T04:44:49.127Z,2.78
2023-05-17T04:47:16.869Z,2.15
2023-05-17T04:49:44.673Z,2.33
2023-05-17T04:52:13.675Z,3.72
2023-05-17T04:54:41.449Z,2.20
2023-05-17T04:57:09.249Z,3.55
2023-05-17T04:59:37.147Z,2.90
2023-05-17T05:02:06.775Z,2.53
2023-05-17T05:04:34.629Z,2.40
2023-05-17T05:07:02.344Z,3.25
2023-05-17T05:09:31.454Z,2.55
2023-05-17T05:11:59.150Z,1.75
2023-05-17T05:14:26.883Z,2.70
2023-05-17T05:16:55.645Z,2.15
2023-05-17T05:19:24.391Z,2.38
2023-05-17T05:21:52.028Z,2.53
2023-05-17T05:24:19.911Z,3.00
2023-05-17T05:26:49.133Z,2.03
2023-05-17T05:29:16.826Z,1.95
2023-05-17T05:31:44.761Z,1.80
2023-05-17T05:34:12.898Z,2.13
2023-05-17T05:36:40.715Z,2.55
2023-05-17T05:39:09.261Z,2.00
2023-05-17T05:41:36.964Z,2.70
2023-05-17T05:44:06.300Z,2.13
2023-05-17T05:46:34.053Z,1.98
2023-05-17T05:49:01.900Z,2.97
2023-05-17T05:51:29.587Z,2.17
2023-05-17T05:53:58.530Z,2.50
2023-05-17T05:56:28.112Z,1.75
2023-05-17T05:58:56.079Z,1.98
2023-05-17T06:01:26.168Z,2.13
2023-05-17T06:03:53.837Z,1.70
2023-05-17T06:06:21.806Z,1.77
2023-05-17T06:08:49.661Z,2.78
2023-05-17T06:11:18.351Z,2.75
2023-05-17T06:13:46.320Z,2.03
2023-05-17T06:16:14.305Z,2.15
2023-05-17T06:18:43.524Z,2.67
2023-05-17T06:21:13.380Z,1.65
2023-05-17T06:23:41.061Z,2.72
2023-05-17T06:26:10.818Z,2.03
2023-05-17T06:28:38.605Z,2.65
2023-05-17T06:31:06.585Z,3.65
2023-05-17T06:33:34.596Z,1.48
2023-05-17T06:38:36.551Z,2.45
2023-05-17T06:41:04.874Z,2.92
2023-05-17T06:43:33.384Z,2.75
2023-05-17T06:46:02.356Z,1.55
2023-05-17T06:48:30.268Z,1.83
2023-05-17T06:50:58.047Z,2.20
2023-05-17T06:53:27.284Z,2.15
2023-05-17T06:55:54.957Z,1.40
2023-05-17T06:58:22.652Z,1.65
2023-05-17T07:00:50.394Z,1.80
2023-05-17T07:03:18.428Z,2.17
2023-05-17T07:05:46.317Z,1.13
2023-05-17T07:08:15.174Z,1.38
2023-05-17T07:10:44.267Z,3.47
2023-05-17T07:13:12.062Z,1.90
2023-05-17T07:15:39.887Z,1.80
2023-05-17T07:18:07.872Z,1.27
2023-05-17T07:20:35.723Z,1.67
2023-05-17T07:23:03.569Z,1.38
2023-05-17T07:25:32.318Z,2.17
2023-05-17T07:28:01.394Z,1.95
2023-05-17T07:30:29.294Z,1.42
2023-05-17T07:32:57.638Z,1.27
2023-05-17T07:35:25.316Z,1.20
2023-05-17T07:37:53.035Z,1.10
2023-05-17T07:40:21.998Z,2.00
2023-05-17T07:42:50.108Z,1.83
2023-05-17T07:45:20.091Z,1.60
2023-05-17T07:47:48.296Z,1.48
2023-05-17T07:50:16.277Z,1.25
2023-05-17T07:52:45.922Z,1.52
2023-05-17T07:55:14.756Z,1.70
2023-05-17T07:57:47.308Z,1.48
2023-05-17T08:00:19.200Z,1.80
2023-05-17T08:02:49.002Z,2.22
2023-05-17T08:05:16.948Z,1.92
2023-05-17T08:07:44.899Z,1.70
2023-05-17T08:10:12.918Z,2.10
2023-05-17T08:12:41.243Z,1.48
2023-05-17T08:15:10.137Z,0.98
2023-05-17T08:17:38.154Z,1.67
2023-05-17T08:20:09.507Z,2.00
2023-05-17T08:22:37.480Z,3.08
2023-05-17T08:25:05.691Z,1.88
2023-05-17T08:27:33.480Z,1.80
2023-05-17T08:30:01.319Z,2.28
2023-05-17T08:32:29.340Z,2.25
2023-05-17T08:34:57.835Z,2.08
2023-05-17T08:37:26.965Z,2.53
2023-05-17T08:39:54.705Z,2.05
2023-05-17T08:42:25.311Z,1.77
2023-05-17T08:44:53.848Z,2.33
2023-05-17T08:47:29.685Z,2.47
2023-05-17T08:50:00.925Z,1.80
2023-05-17T08:52:33.583Z,1.65
2023-05-17T08:55:06.020Z,1.80
2023-05-17T08:57:36.205Z,2.28
2023-05-17T09:00:06.750Z,1.92
2023-05-17T09:02:34.790Z,2.10
2023-05-17T09:05:03.378Z,2.00
2023-05-17T09:07:32.572Z,1.40
2023-05-17T09:10:00.456Z,2.15
2023-05-17T09:12:28.279Z,1.95
2023-05-17T09:15:13.691Z,1.65
2023-05-17T09:17:42.996Z,2.25
2023-05-17T09:20:11.694Z,1.98
2023-05-17T09:22:40.909Z,1.85
2023-05-17T09:25:10.063Z,2.10
2023-05-17T09:27:37.968Z,1.52
2023-05-17T09:30:11.571Z,2.05
2023-05-17T09:32:44.844Z,1.40
2023-05-17T09:35:13.029Z,2.78
2023-05-17T09:37:45.066Z,2.97
2023-05-17T09:40:24.425Z,2.25
2023-05-17T09:42:52.504Z,1.77
2023-05-17T09:45:23.943Z,1.88
2023-05-17T09:47:52.263Z,1.77
2023-05-17T09:50:23.119Z,1.70
2023-05-17T09:52:53.722Z,1.23
2023-05-17T09:55:27.656Z,1.90
2023-05-17T09:58:04.021Z,2.30
2023-05-17T10:00:32.521Z,1.80
2023-05-17T10:03:02.121Z,2.15
2023-05-17T10:05:30.409Z,1.75
2023-05-17T10:07:59.807Z,1.48
2023-05-17T10:10:28.223Z,2.17
2023-05-17T10:12:57.383Z,1.80
2023-05-17T10:15:25.782Z,1.40
2023-05-17T10:17:55.501Z,1.60
2023-05-17T10:20:23.403Z,1.52
2023-05-17T10:22:51.546Z,2.00
2023-05-17T10:25:21.072Z,1.50
2023-05-17T10:27:50.669Z,2.38
2023-05-17T10:30:19.227Z,1.58
2023-05-17T10:32:47.519Z,1.92
2023-05-17T10:35:16.004Z,1.35
2023-05-17T10:37:43.713Z,1.83
2023-05-17T10:40:13.787Z,2.28
2023-05-17T10:42:50.878Z,1.73
2023-05-17T10:45:22.221Z,2.30
2023-05-17T10:47:52.585Z,2.30
2023-05-17T10:50:24.027Z,2.00
2023-05-17T10:52:53.256Z,2.30
2023-05-17T10:55:22.614Z,2.20
2023-05-17T10:58:17.312Z,1.83
2023-05-17T11:00:47.599Z,2.28
2023-05-17T11:03:18.421Z,1.67
2023-05-17T11:06:12.770Z,1.45
2023-05-17T11:09:07.981Z,2.80
2023-05-17T11:11:36.356Z,2.25
2023-05-17T11:14:06.278Z,2.25
2023-05-17T11:16:37.992Z,3.28
2023-05-17T11:19:11.092Z,3.50
2023-05-17T11:21:46.749Z,2.97
2023-05-17T11:24:22.214Z,4.18
2023-05-17T11:26:51.589Z,3.10
2023-05-17T11:29:22.007Z,2.97
2023-05-17T11:31:53.155Z,2.47
2023-05-17T11:34:23.325Z,2.63
2023-05-17T11:36:52.901Z,2.28
2023-05-17T11:39:22.455Z,2.20
2023-05-17T11:41:51.642Z,1.80
2023-05-17T11:44:28.292Z,2.63
2023-05-17T11:47:03.284Z,2.33
2023-05-17T11:49:35.608Z,2.72
2023-05-17T11:52:05.047Z,1.60
2023-05-17T11:54:33.168Z,2.28
2023-05-17T11:57:02.242Z,2.13
2023-05-17T11:59:38.284Z,2.03
2023-05-17T12:02:06.051Z,1.63
2023-05-17T12:04:37.245Z,1.58
2023-05-17T12:07:05.646Z,1.25
2023-05-17T12:09:33.519Z,1.67
2023-05-17T12:12:04.641Z,1.10
2023-05-17T12:14:33.824Z,1.90
2023-05-17T12:17:08.217Z,1.38
2023-05-17T12:19:35.993Z,1.25
2023-05-17T12:22:08.409Z,1.90
2023-05-17T12:24:40.112Z,1.60
2023-05-17T12:27:08.389Z,1.92
2023-05-17T12:29:37.489Z,1.52
2023-05-17T12:32:08.475Z,1.77
2023-05-17T12:34:36.402Z,1.45
2023-05-17T12:37:06.545Z,1.35
2023-05-17T12:39:34.322Z,1.05
2023-05-17T12:42:02.251Z,1.40
2023-05-17T12:44:30.044Z,1.90
2023-05-17T12:47:03.062Z,1.38
2023-05-17T12:49:30.861Z,1.25
2023-05-17T12:52:04.961Z,2.28
2023-05-17T12:54:34.388Z,0.93
2023-05-17T12:57:12.819Z,1.05
2023-05-17T12:59:48.138Z,1.20
2023-05-17T13:02:18.286Z,1.48
2023-05-17T13:04:46.834Z,1.73
2023-05-17T13:07:22.724Z,1.60
2023-05-17T13:09:50.581Z,1.63
2023-05-17T13:12:22.252Z,1.60
2023-05-17T13:14:52.248Z,1.50
2023-05-17T13:17:26.147Z,1.90
2023-05-17T13:19:54.423Z,1.55
2023-05-17T13:22:22.739Z,2.50
2023-05-17T13:24:51.236Z,1.45
2023-05-17T13:27:19.364Z,1.77
2023-05-17T13:29:47.418Z,1.52
2023-05-17T13:32:16.064Z,1.45
2023-05-17T13:34:47.342Z,1.50
2023-05-17T13:37:15.284Z,1.58
2023-05-17T13:39:43.209Z,2.50
2023-05-17T13:42:11.994Z,2.15
2023-05-17T13:44:39.894Z,2.15
2023-05-17T13:47:08.224Z,2.17
2023-05-17T13:49:36.164Z,1.40
2023-05-17T13:52:08.472Z,1.35
2023-05-17T13:54:37.250Z,2.17
2023-05-17T13:57:05.670Z,1.77
2023-05-17T13:59:33.430Z,1.10
2023-05-17T14:02:01.324Z,2.28
2023-05-17T14:04:29.127Z,1.35
2023-05-17T14:06:57.017Z,1.13
2023-05-17T14:09:26.105Z,1.35
2023-05-17T14:11:53.892Z,1.83
2023-05-17T14:14:21.559Z,1.55
2023-05-17T14:16:49.319Z,2.05
2023-05-17T14:19:17.802Z,2.00
2023-05-17T14:21:45.590Z,2.45
2023-05-17T14:24:13.866Z,1.85
2023-05-17T14:26:43.195Z,1.92
2023-05-17T14:29:11.164Z,2.35
2023-05-17T14:31:38.919Z,1.98
2023-05-17T14:34:07.091Z,1.55
2023-05-17T14:36:36.559Z,1.55
2023-05-17T14:39:05.514Z,2.58
2023-05-17T14:41:33.656Z,1.90
2023-05-17T14:44:02.848Z,2.38
2023-05-17T14:46:30.684Z,1.50
2023-05-17T14:48:58.433Z,1.55
2023-05-17T14:51:26.591Z,1.83
2023-05-17T14:53:54.432Z,1.88
2023-05-17T14:56:22.686Z,1.70
2023-05-17T14:58:51.200Z,2.28
2023-05-17T15:01:21.115Z,1.75
2023-05-17T15:03:49.528Z,1.40
2023-05-17T15:06:17.674Z,1.33
2023-05-17T15:08:45.815Z,1.35
2023-05-17T15:11:14.294Z,1.52
2023-05-17T15:13:42.593Z,1.27
2023-05-17T15:16:12.205Z,1.45
2023-05-17T15:18:42.187Z,1.50
2023-05-17T15:21:11.329Z,1.35
2023-05-17T15:23:39.347Z,1.48
2023-05-17T15:26:07.354Z,2.40
2023-05-17T15:28:35.501Z,1.27
2023-05-17T15:31:06.263Z,1.25
2023-05-17T15:33:33.976Z,1.35
2023-05-17T15:36:03.128Z,1.10
2023-05-17T15:38:30.761Z,1.30
2023-05-17T15:41:03.858Z,1.02
2023-05-17T15:43:31.949Z,1.50
2023-05-17T15:46:00.068Z,1.05
2023-05-17T15:48:29.169Z,1.38
2023-05-17T15:50:57.293Z,1.23
2023-05-17T15:53:27.150Z,0.90
2023-05-17T15:55:54.935Z,1.27
2023-05-17T15:58:24.920Z,1.15
2023-05-17T16:00:52.804Z,1.40
2023-05-17T16:03:20.816Z,1.52
2023-05-17T16:05:48.638Z,1.20
2023-05-17T16:08:16.447Z,1.48
2023-05-17T16:10:45.950Z,1.08
2023-05-17T16:13:13.739Z,1.63
2023-05-17T16:15:41.510Z,1.35
2023-05-17T16:18:10.778Z,1.60
2023-05-17T16:20:38.678Z,1.10
2023-05-17T16:23:07.416Z,1.40
2023-05-17T16:25:36.101Z,1.52
2023-05-17T16:28:05.774Z,1.60
2023-05-17T16:30:34.432Z,1.63
2023-05-17T16:33:02.606Z,1.60
2023-05-17T16:35:31.101Z,1.95
2023-05-17T16:37:59.005Z,1.90
2023-05-17T16:40:28.776Z,1.75
2023-05-17T16:42:57.355Z,1.38
2023-05-17T16:45:26.799Z,1.77
2023-05-17T16:47:54.791Z,1.85
2023-05-17T16:50:22.467Z,1.60
2023-05-17T16:52:50.346Z,1.50
2023-05-17T16:55:19.561Z,1.85
2023-05-17T16:57:47.192Z,2.22
2023-05-17T17:00:16.417Z,1.48
2023-05-17T17:02:46.002Z,1.70
2023-05-17T17:05:14.056Z,1.50
2023-05-17T17:07:42.766Z,2.55
2023-05-17T17:10:11.775Z,1.55
2023-05-17T17:12:40.134Z,1.55
2023-05-17T17:15:09.486Z,1.73
2023-05-17T17:17:37.231Z,1.48
2023-05-17T17:20:09.339Z,1.52
2023-05-17T17:22:37.684Z,1.95
2023-05-17T17:25:06.182Z,1.55
2023-05-17T17:27:34.927Z,1.42
2023-05-17T17:30:02.953Z,1.88
2023-05-17T17:32:30.980Z,1.42
2023-05-17T17:34:58.869Z,1.45
2023-05-17T17:37:28.256Z,1.85
2023-05-17T17:39:56.330Z,1.55
2023-05-17T17:42:24.326Z,1.60
2023-05-17T17:44:52.133Z,1.83
2023-05-17T17:47:20.105Z,1.77
2023-05-17T17:49:48.207Z,1.75
2023-05-17T17:52:16.371Z,1.48
2023-05-17T17:54:46.334Z,2.50
2023-05-17T17:57:14.857Z,1.35
2023-05-17T17:59:42.612Z,1.58
2023-05-17T18:02:10.893Z,1.58
2023-05-17T18:04:40.870Z,1.73
2023-05-17T18:07:09.264Z,1.70
2023-05-17T18:09:37.522Z,1.38
2023-05-17T18:12:07.647Z,1.65
2023-05-17T18:14:35.712Z,1.58
2023-05-17T18:17:03.575Z,1.52
2023-05-17T18:19:31.465Z,1.45
2023-05-17T18:22:00.103Z,1.70
2023-05-17T18:24:28.211Z,1.42
2023-05-17T18:26:56.459Z,2.10
2023-05-17T18:29:25.477Z,1.42
2023-05-17T18:31:53.368Z,2.30
2023-05-17T18:34:21.409Z,2.13
2023-05-17T18:36:49.497Z,1.52
2023-05-17T18:39:17.290Z,1.58
2023-05-17T18:41:45.248Z,1.90
2023-05-17T18:44:15.104Z,1.73
2023-05-17T18:46:45.182Z,2.10
2023-05-17T18:49:14.659Z,2.03
2023-05-17T18:51:42.400Z,1.67
2023-05-17T18:54:10.721Z,1.58
2023-05-17T18:56:38.857Z,2.00
2023-05-17T18:59:06.749Z,2.00
2023-05-17T19:01:34.534Z,1.73
2023-05-17T19:04:04.140Z,2.25
2023-05-17T19:06:31.989Z,1.73
2023-05-17T19:09:00.395Z,1.42
2023-05-17T19:11:28.739Z,1.58
2023-05-17T19:13:56.646Z,2.28
2023-05-17T19:16:24.562Z,2.67
2023-05-17T19:18:53.057Z,2.20
2023-05-17T19:21:22.372Z,3.28
2023-05-17T19:23:50.312Z,2.55
2023-05-17T19:26:18.118Z,1.92
2023-05-17T19:28:46.521Z,2.30
2023-05-17T19:31:14.415Z,1.88
2023-05-17T19:33:42.418Z,3.00
2023-05-17T19:36:10.472Z,2.30
2023-05-17T19:38:39.821Z,2.50
2023-05-17T19:41:09.600Z,2.38
2023-05-17T19:43:38.017Z,2.78
2023-05-17T19:46:10.792Z,2.58
2023-05-17T19:48:39.465Z,1.90
2023-05-17T19:51:07.615Z,1.92
2023-05-17T19:53:50.988Z,1.88
2023-05-17T19:56:24.465Z,3.38
2023-05-17T19:58:53.974Z,1.48
2023-05-17T20:01:22.812Z,2.10
2023-05-17T20:03:52.288Z,1.85
2023-05-17T20:06:20.180Z,1.80
2023-05-17T20:08:48.195Z,1.80
2023-05-17T20:11:17.356Z,2.00
2023-05-17T20:13:46.624Z,1.60
2023-05-17T20:16:15.074Z,2.22
2023-05-17T20:18:44.122Z,1.77
2023-05-17T20:21:12.695Z,2.78
2023-05-17T20:23:41.098Z,2.42
2023-05-17T20:26:15.881Z,1.65
2023-05-17T20:28:44.004Z,2.00
2023-05-17T20:31:13.296Z,1.60
2023-05-17T20:33:41.157Z,1.75
2023-05-17T20:36:11.184Z,2.08
2023-05-17T20:38:40.071Z,1.10
2023-05-17T20:41:08.253Z,1.52
2023-05-17T20:43:37.004Z,1.92
2023-05-17T20:46:06.930Z,1.52
2023-05-17T20:48:36.640Z,1.30
2023-05-17T20:51:04.901Z,1.38
2023-05-17T20:53:33.212Z,1.85
2023-05-17T20:56:01.296Z,2.28
2023-05-17T20:58:29.548Z,1.65
2023-05-17T21:00:57.826Z,1.60
2023-05-17T21:03:28.229Z,1.70
2023-05-17T21:05:57.763Z,2.00
2023-05-17T21:08:25.527Z,2.53
2023-05-17T21:10:53.286Z,2.10
2023-05-17T21:13:21.733Z,1.85
2023-05-17T21:15:49.528Z,2.13
2023-05-17T21:18:19.646Z,1.80
2023-05-17T21:20:47.814Z,1.80
2023-05-17T21:23:17.010Z,1.63
2023-05-17T21:25:45.367Z,1.67
2023-05-17T21:28:13.022Z,2.40
2023-05-17T21:30:41.013Z,2.22
2023-05-17T21:33:09.121Z,2.97
2023-05-17T21:35:37.064Z,3.33
2023-05-17T21:38:04.816Z,2.25
2023-05-17T21:40:34.271Z,2.67
2023-05-17T21:43:02.289Z,2.95
2023-05-17T21:45:30.145Z,2.97
2023-05-17T21:47:57.888Z,2.50
2023-05-17T21:50:25.884Z,2.65
2023-05-17T21:52:53.867Z,1.80
2023-05-17T21:55:21.574Z,2.70
2023-05-17T21:57:51.132Z,2.70
2023-05-17T22:00:20.236Z,2.28
2023-05-17T22:02:48.556Z,3.25
2023-05-17T22:05:16.775Z,3.10
2023-05-17T22:07:44.547Z,2.20
2023-05-17T22:10:12.611Z,2.70
2023-05-17T22:12:40.928Z,3.58
2023-05-17T22:15:11.205Z,3.03
2023-05-17T22:17:47.907Z,3.28
2023-05-17T22:20:22.933Z,2.80
2023-05-17T22:22:50.973Z,2.70
2023-05-17T22:25:19.186Z,2.75
2023-05-17T22:27:47.865Z,2.33
2023-05-17T22:30:17.441Z,2.90
2023-05-17T22:32:45.359Z,2.40
2023-05-17T22:35:13.838Z,2.90
2023-05-17T22:37:42.606Z,2.55
2023-05-17T22:40:11.913Z,1.90
2023-05-17T22:42:39.809Z,2.40
2023-05-17T22:45:08.036Z,2.10
2023-05-17T22:47:37.603Z,3.35
2023-05-17T22:50:06.972Z,2.33
2023-05-17T22:52:35.102Z,3.00
2023-05-17T22:55:03.348Z,2.67
2023-05-17T22:57:31.886Z,2.63
2023-05-17T23:00:00.598Z,2.47
2023-05-17T23:02:29.278Z,2.60
2023-05-17T23:05:03.190Z,2.92
2023-05-17T23:07:37.225Z,2.15
2023-05-17T23:10:06.796Z,2.90
2023-05-17T23:12:36.862Z,2.92
2023-05-17T23:15:09.062Z,2.67
2023-05-17T23:17:39.022Z,3.00
2023-05-17T23:20:12.080Z,2.35
2023-05-17T23:22:40.817Z,2.40
2023-05-17T23:25:09.222Z,2.33
2023-05-17T23:27:37.225Z,2.10
2023-05-17T23:30:06.700Z,2.60
2023-05-17T23:32:35.020Z,2.80
2023-05-17T23:35:04.769Z,3.15
2023-05-17T23:37:34.825Z,3.15
2023-05-17T23:40:06.665Z,2.70
2023-05-17T23:42:34.517Z,3.17
2023-05-17T23:45:02.796Z,2.72
2023-05-17T23:47:33.654Z,2.88
2023-05-17T23:50:03.559Z,3.08
2023-05-17T23:52:32.569Z,3.42
2023-05-17T23:55:02.096Z,3.78
2023-05-17T23:57:30.154Z,3.28
2023-05-17T23:59:58.105Z,3.53
